Malaysia Virtual Airlines Airport Information Service

Chung-cheng Kuo-chi Chi-ch'ang

ICAO: RCTP Country: Taiwan
Latitude: 25.0777 Longitude: 121.233
Latest Arrival : MH9793 (RJAA-RCTP) Latest Departure : MH69 (RCTP-WBKK)


WX CaptureLIVE
Data provided by noaa.gov | Fetched at 20:04:33

METAR : RCTP 121930Z 11004KT 9999 FEW012 SCT180 27/24 Q1008 NOSIG RMK A2978

TAF : RCTP 121700Z 1218/1324 17005KT 9999 FEW015 BKN032 TEMPO 1218/1223 FEW010 BKN017 TEMPO 1223/1303 23005KT FEW012 BKN020 TEMPO 1303/1309 25010KT TEMPO 1309/1314 24005KT TEMPO 1320/1324 23005KT


Runway Data for RCTP
Data provided by openaviationdata.com

Runway ID Mag Var Hdg Length Elevation Surface ILS Freq ILS Id ILS Slope
5 -3 52° 12020 ft 107 ft Concrete 111.1 ITIA 3
6 -3 52° 11001 ft 107 ft Concrete 110.7 ICKS 3
23 -3 232° 12020 ft 107 ft Concrete 109.3 ITYA 3
24 -3 232° 11001 ft 107 ft Concrete 111.9 ICJN 3

Chung-cheng Kuo-chi Chi-ch'ang, Taiwan
Use only for reference purposes



Not for navigational purposes.